Time;durP1;ratioP1;P1;durP2;ratioP2;P2;SDS_P1;SDS_P2;PMS_P1;PMS_P2;Temp;Humidity;BMP_temperature;BMP_pressure;BME280_temperature;BME280_humidity;BME280_pressure;Samples;Min_cycle;Max_cycle;Signal;HPM_P1;HPM_P2
2021/11/18 00:00:55;;;;;;;44.05;24.65;;;;;;;7.74;72.65;100889.94;5048079;28;20036;-20
2021/11/18 00:03:22;;;;;;;41.25;22.92;;;;;;;7.61;73.45;100885.25;5030584;28;20025;-21
2021/11/18 00:05:47;;;;;;;41.10;23.33;;;;;;;7.72;72.99;100892.75;5048083;28;20039;-20
2021/11/18 00:08:13;;;;;;;41.30;22.10;;;;;;;7.65;73.08;100892.66;5030301;28;20033;-21
2021/11/18 00:10:42;;;;;;;39.47;22.63;;;;;;;7.84;72.49;100906.44;5030095;28;20068;-20
2021/11/18 00:13:10;;;;;;;33.00;20.00;;;;;;;7.84;71.87;100885.19;5030396;28;20091;-20
2021/11/18 00:15:35;;;;;;;39.03;20.98;;;;;;;7.93;71.68;100896.59;5047824;28;20115;-20
2021/11/18 00:18:12;;;;;;;35.30;21.15;;;;;;;7.82;72.38;100892.53;5030287;28;20507;-21
2021/11/18 00:20:40;;;;;;;33.28;20.73;;;;;;;7.95;71.89;100890.09;5048147;28;20550;-21
2021/11/18 00:23:06;;;;;;;33.65;20.95;;;;;;;7.69;72.97;100887.81;5048397;28;20029;-21
2021/11/18 00:25:31;;;;;;;32.67;20.58;;;;;;;7.62;72.35;100893.03;5048057;28;20048;-20
2021/11/18 00:27:57;;;;;;;34.28;19.48;;;;;;;7.44;73.66;100895.19;5029953;28;20452;-21
2021/11/18 00:30:22;;;;;;;34.33;20.83;;;;;;;7.49;72.97;100884.84;5047961;28;20083;-20
2021/11/18 00:32:48;;;;;;;34.53;20.55;;;;;;;7.39;73.83;100902.84;5030191;28;20116;-20
2021/11/18 00:35:16;;;;;;;36.63;20.58;;;;;;;7.11;75.01;100884.81;5030043;28;20028;-21
2021/11/18 00:37:43;;;;;;;34.60;20.88;;;;;;;7.40;74.21;100902.66;5030160;28;20037;-20
2021/11/18 00:40:09;;;;;;;30.80;19.83;;;;;;;6.93;75.40;100902.81;5047766;28;20033;-21
2021/11/18 00:42:34;;;;;;;34.08;21.92;;;;;;;7.26;74.06;100905.25;5030095;28;20040;-20
2021/11/18 00:45:00;;;;;;;31.67;19.35;;;;;;;7.33;74.00;100900.88;5047679;28;20029;-21
2021/11/18 00:47:25;;;;;;;32.05;18.65;;;;;;;6.53;76.75;100902.81;5047847;28;20488;-20
2021/11/18 00:49:51;;;;;;;29.52;18.55;;;;;;;6.88;75.51;100898.00;5030005;28;20061;-21
2021/11/18 00:52:16;;;;;;;27.73;17.70;;;;;;;6.49;76.50;100882.13;5047809;28;20041;-21
2021/11/18 00:54:42;;;;;;;34.45;19.92;;;;;;;6.87;75.33;100909.63;5029955;28;20029;-21
2021/11/18 00:57:07;;;;;;;31.95;19.02;;;;;;;7.27;73.53;100901.59;5047447;28;20040;-20
2021/11/18 00:59:33;;;;;;;32.42;18.88;;;;;;;7.10;73.58;100899.06;5029766;28;20032;-21
2021/11/18 01:01:58;;;;;;;34.70;18.80;;;;;;;7.05;74.13;100896.13;5048042;28;20028;-21
2021/11/18 01:04:27;;;;;;;34.97;19.48;;;;;;;7.19;74.11;100894.50;5047582;28;20765;-20
2021/11/18 01:06:52;;;;;;;33.50;20.55;;;;;;;7.28;73.25;100876.72;5030495;28;20037;-20
2021/11/18 01:09:18;;;;;;;35.35;20.77;;;;;;;7.30;73.10;100890.66;5047749;28;20035;-20
2021/11/18 01:11:44;;;;;;;33.85;19.90;;;;;;;7.24;73.18;100898.28;5029598;28;20029;-21
2021/11/18 01:14:10;;;;;;;30.83;19.15;;;;;;;7.17;73.00;100881.44;5029232;28;20056;-21
2021/11/18 01:16:36;;;;;;;32.67;21.08;;;;;;;7.11;72.89;100890.09;5047282;28;20021;-22
2021/11/18 01:19:03;;;;;;;33.85;19.48;;;;;;;7.17;73.03;100893.84;5029661;28;20032;-21
2021/11/18 01:21:29;;;;;;;30.40;18.70;;;;;;;7.14;72.71;100895.03;5048001;28;20040;-21
2021/11/18 01:23:54;;;;;;;31.02;18.77;;;;;;;7.02;72.42;100877.88;5051197;28;20581;-21
2021/11/18 01:26:20;;;;;;;31.80;18.40;;;;;;;6.78;73.53;100885.00;5050726;28;20021;-20
2021/11/18 01:28:45;;;;;;;31.48;19.98;;;;;;;6.60;74.30;100897.69;5050893;28;20041;-20
2021/11/18 01:31:11;;;;;;;34.33;19.20;;;;;;;6.31;75.99;100899.06;5033187;28;20119;-21
2021/11/18 01:33:37;;;;;;;32.35;18.77;;;;;;;5.63;77.34;100895.03;5050846;28;20503;-21
2021/11/18 01:36:03;;;;;;;31.30;19.20;;;;;;;5.44;77.89;100880.34;5051428;28;20416;-20
2021/11/18 01:38:31;;;;;;;32.90;19.35;;;;;;;5.98;76.44;100890.41;5050549;28;20167;-21
2021/11/18 01:40:57;;;;;;;33.40;19.27;;;;;;;6.00;76.10;100878.63;5033178;28;20029;-21
2021/11/18 01:43:25;;;;;;;32.42;18.50;;;;;;;6.00;76.40;100894.53;5051104;28;20057;-21
2021/11/18 01:45:51;;;;;;;32.70;19.80;;;;;;;6.36;75.14;100878.22;5050624;28;20135;-21
2021/11/18 01:48:16;;;;;;;30.25;19.45;;;;;;;6.26;74.70;100890.84;5050577;28;20131;-20
2021/11/18 01:50:42;;;;;;;33.80;19.88;;;;;;;6.30;74.58;100897.44;5050844;28;20029;-20
2021/11/18 01:53:19;;;;;;;34.35;20.08;;;;;;;6.24;74.79;100898.94;5032841;28;20033;-21
2021/11/18 01:55:46;;;;;;;31.63;19.13;;;;;;;6.40;74.00;100881.34;5016356;28;20032;-21
2021/11/18 01:58:12;;;;;;;33.50;20.65;;;;;;;5.98;75.33;100896.50;5032366;28;20032;-21
2021/11/18 02:00:44;;;;;;;37.38;23.75;;;;;;;6.21;74.31;100870.16;5050339;28;20409;-21
2021/11/18 02:03:10;;;;;;;37.30;22.77;;;;;;;5.78;75.64;100874.00;5015916;28;20037;-20
2021/11/18 02:05:37;;;;;;;41.92;23.48;;;;;;;5.82;76.46;100891.22;5050242;28;20065;-20
2021/11/18 02:08:04;;;;;;;38.47;21.70;;;;;;;6.06;74.78;100879.78;5032175;28;20094;-20
2021/11/18 02:10:31;;;;;;;39.53;23.10;;;;;;;5.77;75.38;100872.38;5050046;28;20507;-21
2021/11/18 02:13:01;;;;;;;40.25;24.25;;;;;;;6.31;73.20;100883.19;5050277;28;20044;-21
2021/11/18 02:15:35;;;;;;;42.72;24.80;;;;;;;6.20;73.79;100891.50;5015423;28;20104;-21
2021/11/18 02:18:03;;;;;;;39.95;23.00;;;;;;;6.23;73.51;100896.44;5049963;28;20052;-21
2021/11/18 02:20:31;;;;;;;42.50;24.33;;;;;;;6.24;72.78;100887.53;5049861;28;20036;-21
2021/11/18 02:22:56;;;;;;;40.63;23.33;;;;;;;6.34;72.28;100882.03;5050252;28;20033;-21
2021/11/18 02:25:30;;;;;;;39.75;22.48;;;;;;;6.19;72.93;100900.44;5032098;28;20032;-20
2021/11/18 02:27:56;;;;;;;38.47;21.67;;;;;;;5.80;74.07;100898.50;5016136;28;20040;-21
2021/11/18 02:30:22;;;;;;;36.42;20.42;;;;;;;5.63;75.83;100893.22;5049971;28;20037;-21
2021/11/18 02:32:48;;;;;;;34.60;20.00;;;;;;;5.79;74.28;100902.97;5031971;28;20037;-20
2021/11/18 02:35:27;;;;;;;38.80;20.42;;;;;;;5.48;76.37;100910.75;5049768;28;20477;-21
2021/11/18 02:37:53;;;;;;;31.42;18.25;;;;;;;5.69;76.08;100904.13;5033626;28;20029;-23
2021/11/18 02:40:19;;;;;;;32.55;18.00;;;;;;;5.55;75.89;100902.97;5031890;28;20140;-21
2021/11/18 02:42:44;;;;;;;35.83;18.77;;;;;;;5.89;74.57;100910.75;5049810;28;20033;-20
2021/11/18 02:45:18;;;;;;;35.92;18.00;;;;;;;5.94;73.56;100892.50;5049453;28;20029;-20
2021/11/18 02:47:43;;;;;;;38.65;19.60;;;;;;;6.23;73.59;100913.19;5049490;28;20041;-21
2021/11/18 02:50:11;;;;;;;33.15;17.20;;;;;;;5.78;74.21;100903.13;5049310;28;20055;-21
2021/11/18 02:52:36;;;;;;;36.60;18.10;;;;;;;5.11;76.82;100898.81;5049385;28;20041;-21
2021/11/18 02:55:10;;;;;;;33.50;16.80;;;;;;;5.50;75.79;100900.00;5049240;28;20114;-22
2021/11/18 02:57:36;;;;;;;35.80;17.48;;;;;;;5.19;76.16;100882.97;5032123;28;20037;-20
2021/11/18 03:00:05;;;;;;;31.13;17.15;;;;;;;5.82;73.59;100900.00;5031631;28;20032;-21
2021/11/18 03:02:31;;;;;;;29.92;17.23;;;;;;;5.70;74.36;100908.41;5031237;28;20572;-20
2021/11/18 03:04:56;;;;;;;35.13;16.30;;;;;;;4.81;77.07;100900.22;5049303;28;20032;-20
2021/11/18 03:07:22;;;;;;;36.95;17.23;;;;;;;5.02;76.81;100897.13;5049139;28;20048;-22
2021/11/18 03:09:47;;;;;;;28.38;15.50;;;;;;;5.09;76.27;100892.84;5049281;28;20033;-21
2021/11/18 03:12:13;;;;;;;29.02;15.50;;;;;;;5.12;76.25;100903.09;5048563;28;20059;-21
2021/11/18 03:14:39;;;;;;;24.52;13.80;;;;;;;4.59;76.18;100902.44;5049139;28;20065;-21
2021/11/18 03:17:04;;;;;;;31.75;15.45;;;;;;;4.51;77.93;100899.75;5049140;28;20098;-21
2021/11/18 03:19:30;;;;;;;33.28;16.63;;;;;;;4.58;77.21;100894.69;5049011;28;20099;-21
2021/11/18 03:21:55;;;;;;;29.02;14.95;;;;;;;4.63;76.96;100902.97;5048868;28;20024;-21
2021/11/18 03:24:21;;;;;;;29.65;16.00;;;;;;;4.85;76.59;100908.66;5030793;28;20047;-21
2021/11/18 03:26:46;;;;;;;31.13;16.77;;;;;;;5.14;75.11;100906.41;5048410;28;20386;-21
2021/11/18 03:29:12;;;;;;;27.65;15.45;;;;;;;5.00;74.93;100904.38;5030964;28;20086;-21
2021/11/18 03:31:37;;;;;;;28.83;15.98;;;;;;;4.70;75.77;100904.00;5049064;28;20478;-21
2021/11/18 03:34:05;;;;;;;32.22;17.73;;;;;;;4.69;76.04;100906.78;5031307;28;20044;-21
2021/11/18 03:36:31;;;;;;;32.08;16.88;;;;;;;4.72;74.96;100896.72;5048471;28;20116;-21
2021/11/18 03:38:57;;;;;;;30.10;16.02;;;;;;;4.78;75.13;100906.66;5030981;28;20508;-21
2021/11/18 03:41:24;;;;;;;26.17;15.43;;;;;;;4.45;76.70;100910.16;5030791;28;20119;-21
2021/11/18 03:43:54;;;;;;;27.50;16.38;;;;;;;4.32;77.67;100900.84;5030499;28;20021;-20
2021/11/18 03:46:22;;;;;;;29.00;16.40;;;;;;;4.91;75.31;100900.91;5030301;28;20056;-21
2021/11/18 03:48:48;;;;;;;26.15;13.80;;;;;;;4.68;75.69;100905.13;5030926;28;20075;-21
2021/11/18 03:51:13;;;;;;;25.67;14.75;;;;;;;4.91;74.73;100900.91;5030442;28;20510;-21
2021/11/18 03:53:39;;;;;;;27.65;15.07;;;;;;;4.96;74.13;100898.59;5048442;28;20457;-20
2021/11/18 03:56:07;;;;;;;24.45;13.40;;;;;;;4.47;75.17;100902.88;5048632;28;20582;-21
2021/11/18 03:58:33;;;;;;;24.67;13.52;;;;;;;3.65;77.57;100881.28;5048285;28;20044;-20
2021/11/18 04:00:58;;;;;;;20.80;12.95;;;;;;;3.54;76.72;100906.94;5030505;28;20420;-21
2021/11/18 04:03:24;;;;;;;22.70;12.52;;;;;;;3.19;77.67;100903.31;5048195;28;20037;-21
2021/11/18 04:05:49;;;;;;;19.38;11.32;;;;;;;3.17;77.62;100902.63;5048167;28;20024;-21
2021/11/18 04:08:15;;;;;;;19.42;11.25;;;;;;;3.14;77.77;100905.56;5048070;28;20043;-20
2021/11/18 04:10:40;;;;;;;37.38;21.08;;;;;;;3.05;78.19;100888.03;5048038;28;22147;-21
2021/11/18 04:13:06;;;;;;;50.75;28.40;;;;;;;3.39;78.35;100897.88;5048104;28;20053;-20
2021/11/18 04:15:32;;;;;;;85.97;44.58;;;;;;;3.65;77.53;100907.66;5048431;28;20045;-21
2021/11/18 04:17:58;;;;;;;37.75;21.17;;;;;;;3.04;78.55;100878.44;5048316;28;20033;-20
2021/11/18 04:20:24;;;;;;;25.40;14.70;;;;;;;2.95;79.51;100897.81;5047791;28;20036;-20
2021/11/18 04:22:50;;;;;;;37.22;20.15;;;;;;;2.75;80.53;100900.53;5047967;28;20029;-21
2021/11/18 04:25:17;;;;;;;29.50;15.30;;;;;;;2.66;80.89;100900.63;5030017;28;20025;-21
2021/11/18 04:27:43;;;;;;;70.80;35.65;;;;;;;2.97;80.98;100901.13;5029995;28;20059;-21
2021/11/18 04:30:10;;;;;;;65.28;16.83;;;;;;;2.58;82.13;100903.97;5047888;28;20025;-21
2021/11/18 04:32:36;;;;;;;56.17;16.48;;;;;;;3.01;80.97;100899.84;5029281;28;20116;-21
2021/11/18 04:35:02;;;;;;;82.45;23.50;;;;;;;3.14;81.83;100912.66;5027946;28;20029;-21
2021/11/18 04:37:27;;;;;;;62.65;20.60;;;;;;;3.31;80.98;100911.00;5013722;28;20040;-21
2021/11/18 04:39:53;;;;;;;76.25;29.75;;;;;;;2.86;82.97;100911.84;5047727;28;20035;-21
2021/11/18 04:42:19;;;;;;;46.08;19.13;;;;;;;3.00;81.44;100900.81;5047913;28;20029;-21
2021/11/18 04:44:44;;;;;;;40.60;18.48;;;;;;;2.75;82.41;100912.88;5030160;28;20025;-21
2021/11/18 04:47:12;;;;;;;41.47;14.73;;;;;;;2.30;83.87;100896.03;5047990;28;20058;-20
2021/11/18 04:49:39;;;;;;;55.85;15.07;;;;;;;2.48;84.54;100929.53;5047906;28;20029;-20
2021/11/18 04:52:05;;;;;;;76.07;15.15;;;;;;;2.44;84.87;100934.22;5029951;28;20091;-21
2021/11/18 04:54:31;;;;;;;58.78;16.08;;;;;;;2.82;84.34;100924.50;5029487;28;20057;-21
2021/11/18 04:56:56;;;;;;;226.27;78.03;;;;;;;2.69;83.54;100921.38;5048860;28;20103;-20
2021/11/18 04:59:22;;;;;;;314.42;117.45;;;;;;;2.99;83.21;100933.41;5051635;28;20025;-21
2021/11/18 05:01:47;;;;;;;272.55;104.68;;;;;;;3.79;80.16;100942.22;5033700;28;20036;-21
2021/11/18 05:04:13;;;;;;;205.20;85.68;;;;;;;4.08;77.84;100940.31;5051107;28;20028;-20
2021/11/18 05:06:38;;;;;;;210.32;83.60;;;;;;;4.20;76.35;100929.31;5033607;28;20033;-21
2021/11/18 05:09:05;;;;;;;125.22;55.50;;;;;;;4.33;75.84;100928.06;5033689;28;20040;-21
2021/11/18 05:11:30;;;;;;;150.82;63.33;;;;;;;4.40;75.46;100935.22;5033631;28;20033;-21
2021/11/18 05:13:56;;;;;;;133.80;58.85;;;;;;;4.47;74.96;100939.88;5051208;28;20885;-21
2021/11/18 05:16:21;;;;;;;104.72;48.65;;;;;;;4.37;75.14;100940.81;5051220;28;20037;-20
2021/11/18 05:18:47;;;;;;;56.45;31.00;;;;;;;4.32;75.70;100926.44;5051366;28;20418;-20
2021/11/18 05:21:14;;;;;;;51.42;29.38;;;;;;;4.48;75.15;100941.53;5051250;28;20082;-20
2021/11/18 05:23:39;;;;;;;51.15;27.83;;;;;;;4.74;73.84;100942.31;5033312;28;20119;-21
2021/11/18 05:26:05;;;;;;;68.85;36.85;;;;;;;4.66;74.21;100944.94;5051222;28;20031;-21
2021/11/18 05:28:31;;;;;;;71.93;37.10;;;;;;;4.52;73.67;100948.16;5051045;28;20048;-20
2021/11/18 05:30:56;;;;;;;64.93;34.55;;;;;;;4.69;72.57;100949.88;5051162;28;20066;-20
2021/11/18 05:33:23;;;;;;;62.70;33.00;;;;;;;4.52;72.27;100953.44;5032997;28;20033;-21
2021/11/18 05:35:48;;;;;;;71.03;36.20;;;;;;;4.38;73.13;100958.31;5051257;28;20052;-21
2021/11/18 05:38:14;;;;;;;71.72;38.30;;;;;;;4.50;73.55;100960.69;5032751;28;20443;-21
2021/11/18 05:40:40;;;;;;;61.50;35.15;;;;;;;4.47;73.41;100966.28;5032962;28;20037;-20
2021/11/18 05:43:06;;;;;;;60.53;35.03;;;;;;;3.58;76.18;100949.66;5033078;28;20076;-21
2021/11/18 05:45:33;;;;;;;62.20;37.10;;;;;;;3.77;77.27;100964.47;5032842;28;20060;-21
2021/11/18 05:47:59;;;;;;;65.80;37.63;;;;;;;3.91;76.82;100956.03;5050947;28;20068;-20
2021/11/18 05:50:25;;;;;;;61.72;34.67;;;;;;;4.08;76.63;100956.13;5016494;28;20029;-21
2021/11/18 05:52:51;;;;;;;52.17;31.27;;;;;;;4.23;76.16;100970.44;5032610;28;20071;-21
2021/11/18 05:55:18;;;;;;;51.55;30.38;;;;;;;4.32;75.79;100974.78;5050985;28;20056;-21
2021/11/18 05:57:45;;;;;;;60.22;34.65;;;;;;;4.18;76.44;100962.16;5033138;28;20554;-21
2021/11/18 06:00:13;;;;;;;49.40;30.70;;;;;;;3.78;77.57;100976.69;5032703;28;20043;-21
2021/11/18 06:02:39;;;;;;;43.88;26.85;;;;;;;3.94;77.73;100983.91;5015990;28;20025;-21
2021/11/18 06:05:06;;;;;;;34.28;21.33;;;;;;;4.03;76.40;100997.03;5032970;28;20045;-21
2021/11/18 06:07:32;;;;;;;34.20;19.17;;;;;;;4.38;75.05;100989.19;5050000;28;20060;-21
2021/11/18 06:09:58;;;;;;;32.28;18.45;;;;;;;4.09;76.37;101000.03;5032714;28;20051;-21
2021/11/18 06:12:24;;;;;;;26.95;16.80;;;;;;;3.96;76.16;100959.03;5050268;28;20401;-21
2021/11/18 06:14:50;;;;;;;33.22;17.75;;;;;;;4.18;76.48;100993.81;5049956;28;20052;-21
2021/11/18 06:17:16;;;;;;;26.83;15.60;;;;;;;4.14;77.34;100997.75;5015933;28;20103;-21
2021/11/18 06:19:42;;;;;;;26.17;15.35;;;;;;;4.29;76.79;100996.22;5050064;28;20041;-21
2021/11/18 06:22:08;;;;;;;28.30;14.77;;;;;;;4.54;75.49;100999.03;5049772;28;20036;-21
2021/11/18 06:24:33;;;;;;;27.15;15.18;;;;;;;4.47;75.40;100997.97;5050064;28;20249;-20
2021/11/18 06:26:58;;;;;;;32.33;15.80;;;;;;;4.65;74.84;100993.44;5049915;28;20036;-21
2021/11/18 06:29:24;;;;;;;26.60;15.43;;;;;;;4.88;74.21;100987.63;5050143;28;20400;-21
2021/11/18 06:31:52;;;;;;;26.55;14.75;;;;;;;4.97;74.76;100995.44;5050006;28;20044;-21
2021/11/18 06:34:17;;;;;;;28.40;14.93;;;;;;;4.87;74.62;100999.19;5031861;28;20033;-20
2021/11/18 06:36:43;;;;;;;27.80;13.95;;;;;;;4.24;77.39;101009.06;5031907;28;20035;-21
2021/11/18 06:39:09;;;;;;;24.10;14.65;;;;;;;4.51;77.67;101004.59;5050063;28;20087;-21
2021/11/18 06:41:35;;;;;;;20.70;12.70;;;;;;;4.90;75.42;101017.34;5032031;28;20523;-21
2021/11/18 06:44:00;;;;;;;26.30;13.93;;;;;;;4.83;76.08;101012.72;5049557;28;20020;-21
2021/11/18 06:46:26;;;;;;;22.85;14.00;;;;;;;4.73;75.42;101000.59;5049520;28;20366;-21
2021/11/18 06:48:53;;;;;;;24.95;14.15;;;;;;;4.87;76.19;101028.25;5031700;28;20086;-20
2021/11/18 06:51:21;;;;;;;24.42;14.30;;;;;;;4.65;76.64;101001.38;5049462;28;20109;-21
2021/11/18 06:53:46;;;;;;;27.88;13.75;;;;;;;4.92;76.98;101029.41;5049560;28;20025;-21
2021/11/18 06:56:12;;;;;;;23.52;14.80;;;;;;;5.13;76.17;101015.81;5049673;28;20037;-21
2021/11/18 06:58:37;;;;;;;26.98;16.25;;;;;;;5.26;77.01;101022.47;5031534;28;20029;-21
2021/11/18 07:01:03;;;;;;;29.85;16.70;;;;;;;4.62;79.31;101023.66;5031686;28;20110;-20
2021/11/18 07:03:28;;;;;;;86.68;36.42;;;;;;;4.79;81.18;101021.13;5049249;28;20032;-21
2021/11/18 07:05:54;;;;;;;40.58;21.85;;;;;;;4.87;80.77;101030.91;5031363;28;20047;-21
2021/11/18 07:08:19;;;;;;;37.28;19.10;;;;;;;5.06;80.15;101009.50;5049067;28;20077;-21
2021/11/18 07:10:45;;;;;;;37.80;20.42;;;;;;;5.35;78.86;101029.44;5048996;28;20484;-21
2021/11/18 07:13:15;;;;;;;43.15;20.60;;;;;;;5.58;78.85;101009.31;5048761;28;20061;-21
2021/11/18 07:15:41;;;;;;;38.97;21.02;;;;;;;5.58;79.70;101025.19;5049104;28;20061;-21
2021/11/18 07:18:06;;;;;;;99.45;43.67;;;;;;;5.79;79.90;101016.78;5049072;28;20033;-21
2021/11/18 07:20:32;;;;;;;91.40;40.42;;;;;;;5.94;79.07;101019.59;5047715;28;20064;-22
2021/11/18 07:22:57;;;;;;;44.67;24.27;;;;;;;5.96;78.45;101012.34;5048938;28;20033;-21
2021/11/18 07:25:24;;;;;;;41.63;21.67;;;;;;;6.08;78.46;101014.69;5048728;28;20017;-21
2021/11/18 07:27:50;;;;;;;48.58;24.33;;;;;;;5.78;79.90;101009.00;5030730;28;20745;-21
2021/11/18 07:30:16;;;;;;;55.42;27.00;;;;;;;5.92;80.90;101004.88;5048496;28;20484;-21
2021/11/18 07:32:42;;;;;;;47.17;25.42;;;;;;;6.30;79.34;101008.69;5030910;28;20044;-21
2021/11/18 07:35:07;;;;;;;53.67;27.80;;;;;;;6.22;80.06;101011.34;5048549;28;20491;-23
2021/11/18 07:37:33;;;;;;;57.90;28.70;;;;;;;6.18;80.78;101012.69;5048644;28;20021;-21
2021/11/18 07:39:58;;;;;;;57.58;31.60;;;;;;;6.20;81.94;101010.69;5048680;28;20029;-21
2021/11/18 07:42:24;;;;;;;61.25;31.70;;;;;;;6.17;83.21;101011.00;5048464;28;20032;-21
2021/11/18 07:44:50;;;;;;;68.40;34.97;;;;;;;6.56;81.63;101007.66;5030858;28;20024;-22
2021/11/18 07:47:15;;;;;;;63.50;35.63;;;;;;;7.00;80.70;100999.22;5031024;28;20086;-21
2021/11/18 07:49:41;;;;;;;64.82;35.75;;;;;;;7.20;79.66;100986.38;5048440;28;20035;-21
2021/11/18 07:52:06;;;;;;;66.75;39.03;;;;;;;7.82;77.67;100993.44;5048299;28;20455;-21
2021/11/18 07:54:32;;;;;;;79.90;41.13;;;;;;;7.79;78.10;100994.63;5047982;28;20040;-20
2021/11/18 07:56:57;;;;;;;66.28;37.55;;;;;;;7.50;78.35;100979.41;5030714;28;20129;-21
2021/11/18 07:59:23;;;;;;;66.68;36.50;;;;;;;7.56;77.42;100989.31;5030483;28;20028;-21
2021/11/18 08:01:48;;;;;;;66.25;36.25;;;;;;;7.58;77.77;100999.72;5048224;28;20025;-20
2021/11/18 08:04:14;;;;;;;61.67;35.78;;;;;;;7.58;76.91;100995.28;5047963;28;20090;-21
2021/11/18 08:06:40;;;;;;;62.72;36.50;;;;;;;7.79;76.58;100985.84;5030383;28;20029;-21
2021/11/18 08:09:10;;;;;;;60.65;34.30;;;;;;;7.96;75.11;100986.50;5048321;28;20056;-21
2021/11/18 08:11:37;;;;;;;56.20;33.22;;;;;;;7.92;75.59;100975.41;5048160;28;20037;-21
2021/11/18 08:14:03;;;;;;;52.60;29.60;;;;;;;8.23;74.67;100990.41;5048169;28;20053;-21
2021/11/18 08:16:29;;;;;;;46.42;26.15;;;;;;;8.25;73.81;100977.78;5029978;28;20017;-21
2021/11/18 08:18:54;;;;;;;48.53;29.67;;;;;;;8.61;72.22;100971.78;5048214;28;20103;-21
2021/11/18 08:21:20;;;;;;;49.47;27.27;;;;;;;8.64;72.49;100988.22;5048009;28;20029;-20
2021/11/18 08:23:45;;;;;;;43.78;24.17;;;;;;;8.27;72.16;100974.94;5030506;28;20492;-20
2021/11/18 08:26:13;;;;;;;45.25;24.50;;;;;;;8.54;71.57;100986.81;5030028;28;20484;-21
2021/11/18 08:28:38;;;;;;;47.17;25.27;;;;;;;8.35;71.91;100991.63;5048165;28;20170;-21
2021/11/18 08:31:04;;;;;;;37.75;22.65;;;;;;;8.57;70.99;100997.09;5031910;28;20452;-20
2021/11/18 08:33:30;;;;;;;40.28;23.63;;;;;;;8.89;70.63;100997.72;5034357;28;20546;-21
2021/11/18 08:35:55;;;;;;;39.30;24.98;;;;;;;8.97;70.36;100990.50;5034424;28;20025;-20
2021/11/18 08:38:21;;;;;;;45.65;25.67;;;;;;;8.73;70.43;100980.97;5017542;28;20102;-21
2021/11/18 08:40:55;;;;;;;46.22;24.85;;;;;;;8.74;70.51;100985.25;5052077;28;20034;-20
2021/11/18 08:43:21;;;;;;;42.17;25.77;;;;;;;8.61;71.28;100982.44;5052076;28;20067;-21
2021/11/18 08:45:47;;;;;;;42.88;26.75;;;;;;;8.81;71.37;100988.03;5051655;28;20440;-21
2021/11/18 08:48:13;;;;;;;39.60;26.30;;;;;;;9.16;70.28;100994.41;5051523;28;20044;-21
2021/11/18 08:50:40;;;;;;;43.83;27.17;;;;;;;9.30;69.67;100986.56;5033962;28;20455;-20
2021/11/18 08:53:06;;;;;;;43.08;26.92;;;;;;;9.10;70.49;100987.16;5051673;28;20061;-21
2021/11/18 08:55:33;;;;;;;39.67;25.67;;;;;;;9.08;71.15;100989.19;5033884;28;20057;-21
2021/11/18 08:57:59;;;;;;;42.42;25.00;;;;;;;9.41;69.54;100978.09;5052370;28;20481;-21
2021/11/18 09:00:50;;;;;;;40.50;25.05;;;;;;;9.66;70.12;100970.53;5051959;28;20088;-21
2021/11/18 09:03:17;;;;;;;40.00;25.08;;;;;;;9.86;67.92;100966.22;5050893;28;20505;-21
2021/11/18 09:05:42;;;;;;;38.67;22.98;;;;;;;10.29;66.64;100969.84;5051406;28;20036;-21
2021/11/18 09:08:08;;;;;;;37.25;22.55;;;;;;;10.48;66.50;100985.16;5051493;28;20033;-21
2021/11/18 09:10:34;;;;;;;36.33;22.52;;;;;;;11.13;64.36;100982.19;5051370;28;20033;-21
2021/11/18 09:12:59;;;;;;;30.80;19.10;;;;;;;11.08;60.58;100976.66;5033584;28;20063;-21
2021/11/18 09:15:26;;;;;;;32.75;21.00;;;;;;;11.07;62.45;100967.78;5016327;28;20144;-20
2021/11/18 09:17:51;;;;;;;31.33;19.52;;;;;;;11.23;62.32;100977.31;5049653;28;20039;-20
2021/11/18 09:20:18;;;;;;;30.15;18.40;;;;;;;11.63;59.09;100972.88;5049595;28;20040;-21
2021/11/18 09:22:44;;;;;;;29.30;19.00;;;;;;;11.78;59.57;100974.53;5051101;28;20480;-20
2021/11/18 09:25:10;;;;;;;29.13;17.83;;;;;;;11.91;58.73;100969.25;5051255;28;20060;-21
2021/11/18 09:27:46;;;;;;;27.90;17.40;;;;;;;11.81;58.22;100971.44;5050968;28;20036;-21
2021/11/18 09:30:16;;;;;;;28.25;17.48;;;;;;;12.09;57.26;100962.44;5050783;28;20025;-21
2021/11/18 09:32:42;;;;;;;25.92;18.17;;;;;;;12.58;57.11;100958.44;5051545;28;20833;-21
2021/11/18 09:35:10;;;;;;;25.40;16.23;;;;;;;13.13;53.97;100972.25;5050925;28;20044;-20
2021/11/18 09:37:35;;;;;;;24.10;15.52;;;;;;;12.93;54.39;100966.97;5051239;28;20031;-21
2021/11/18 09:40:03;;;;;;;232.25;108.18;;;;;;;13.42;54.26;100959.34;5050939;28;20045;-21
2021/11/18 09:42:48;;;;;;;41.20;25.83;;;;;;;13.15;53.73;100943.38;5032495;28;20032;-20
2021/11/18 09:45:14;;;;;;;27.60;17.63;;;;;;;13.53;53.05;100965.88;5017894;28;20036;-20
2021/11/18 09:48:02;;;;;;;25.35;16.58;;;;;;;13.86;50.58;100965.63;5050798;28;20544;-20
2021/11/18 09:50:33;;;;;;;23.35;15.73;;;;;;;13.84;51.99;100963.16;5032535;28;20040;-22
2021/11/18 09:53:23;;;;;;;25.92;16.13;;;;;;;13.52;51.34;100965.03;5032941;28;20477;-21
2021/11/18 09:55:56;;;;;;;19.65;12.93;;;;;;;12.77;52.37;100956.72;5050902;28;20841;-21
2021/11/18 09:58:32;;;;;;;18.52;13.68;;;;;;;13.02;54.09;100965.69;5032723;28;20060;-20
2021/11/18 10:01:26;;;;;;;128.90;21.83;;;;;;;13.34;51.07;100959.59;5032496;28;20041;-20
2021/11/18 10:03:59;;;;;;;15.93;10.35;;;;;;;13.96;49.30;100957.09;5050654;28;20071;-21
2021/11/18 10:06:30;;;;;;;17.48;11.68;;;;;;;14.07;47.39;100956.38;5050306;28;20035;-20
2021/11/18 10:09:05;;;;;;;16.88;10.82;;;;;;;14.07;46.73;100954.50;5032811;28;20033;-22
2021/11/18 10:11:50;;;;;;;15.52;9.82;;;;;;;13.78;46.71;100949.81;5033266;28;20039;-21
2021/11/18 10:14:15;;;;;;;14.90;10.73;;;;;;;13.98;49.55;100953.16;5031839;28;20065;-21
2021/11/18 10:16:49;;;;;;;13.10;9.05;;;;;;;13.77;46.97;100934.75;5050057;28;20025;-20
2021/11/18 10:19:18;;;;;;;13.82;10.45;;;;;;;14.01;48.30;100936.63;5032830;28;20183;-21
2021/11/18 10:21:43;;;;;;;;;;;;;;;13.77;47.97;100929.41;5016390;28;20621;-21
2021/11/18 10:24:20;;;;;;;21.65;15.23;;;;;;;14.46;47.69;100936.41;5050091;28;19939;-22
2021/11/18 10:26:53;;;;;;;18.70;12.07;;;;;;;15.00;46.12;100933.09;5032115;28;20021;-21
2021/11/18 10:29:24;;;;;;;18.95;12.50;;;;;;;15.22;46.29;100923.50;5032344;28;20090;-20
2021/11/18 10:31:56;;;;;;;19.40;12.30;;;;;;;15.05;47.07;100925.97;5032231;28;20124;-20
2021/11/18 10:34:30;;;;;;;18.92;11.77;;;;;;;15.47;43.86;100927.88;5049513;28;20036;-21
2021/11/18 10:37:04;;;;;;;20.90;12.40;;;;;;;15.31;43.82;100907.06;5049793;28;20079;-20
2021/11/18 10:39:32;;;;;;;20.65;13.07;;;;;;;15.61;44.88;100913.19;5032687;28;20111;-21
2021/11/18 10:42:06;;;;;;;18.75;12.52;;;;;;;15.42;45.06;100892.81;5049897;28;20488;-20
2021/11/18 10:44:56;;;;;;;19.50;12.20;;;;;;;15.11;43.94;100900.09;5049574;28;20029;-20
2021/11/18 10:47:32;;;;;;;21.95;12.43;;;;;;;14.63;45.33;100900.94;5049702;28;20417;-20
2021/11/18 10:49:59;;;;;;;17.13;11.98;;;;;;;15.24;44.04;100896.38;5049559;28;20511;-20
2021/11/18 10:52:32;;;;;;;19.63;12.40;;;;;;;15.09;44.08;100886.06;5049166;28;20036;-20
2021/11/18 10:55:14;;;;;;;18.80;11.75;;;;;;;15.53;43.76;100883.13;5030914;28;20094;-20
2021/11/18 10:57:53;;;;;;;20.00;12.45;;;;;;;16.13;43.03;100887.50;5049422;28;20036;-20
2021/11/18 11:00:26;;;;;;;17.88;11.95;;;;;;;16.16;41.31;100876.25;5049161;28;20098;-21
2021/11/18 11:02:52;;;;;;;18.00;12.45;;;;;;;16.03;43.06;100878.13;5049448;28;20033;-20
2021/11/18 11:05:34;;;;;;;15.40;11.27;;;;;;;16.16;42.33;100887.03;5049285;28;20463;-21
2021/11/18 11:08:02;;;;;;;17.45;12.43;;;;;;;16.40;42.42;100883.25;5049485;28;20037;-21
2021/11/18 11:10:29;;;;;;;19.57;12.37;;;;;;;16.61;41.50;100878.25;5048735;28;20067;-21
2021/11/18 11:13:16;;;;;;;19.08;12.73;;;;;;;16.84;41.93;100869.34;5015272;28;20036;-20
2021/11/18 11:16:02;;;;;;;22.63;13.45;;;;;;;16.49;41.39;100859.47;5031146;28;20049;-20